sensor_id;sensor_type;location;lat;lon;timestamp;P1;durP1;ratioP1;P2;durP2;ratioP2
2001;SDS011;1003;48.002;7.788;2023-05-07T00:00:49;4.50;;;3.13;;
2001;SDS011;1003;48.002;7.788;2023-05-07T00:03:18;4.90;;;3.10;;
2001;SDS011;1003;48.002;7.788;2023-05-07T00:05:46;5.27;;;3.40;;
2001;SDS011;1003;48.002;7.788;2023-05-07T00:08:14;10.83;;;4.60;;
2001;SDS011;1003;48.002;7.788;2023-05-07T00:10:41;4.60;;;3.13;;
2001;SDS011;1003;48.002;7.788;2023-05-07T00:13:11;5.57;;;3.60;;
2001;SDS011;1003;48.002;7.788;2023-05-07T00:15:38;5.00;;;3.50;;
2001;SDS011;1003;48.002;7.788;2023-05-07T00:18:05;4.73;;;3.80;;
2001;SDS011;1003;48.002;7.788;2023-05-07T00:20:34;8.33;;;4.00;;
2001;SDS011;1003;48.002;7.788;2023-05-07T00:23:01;7.47;;;4.03;;
2001;SDS011;1003;48.002;7.788;2023-05-07T00:25:28;4.50;;;3.67;;
2001;SDS011;1003;48.002;7.788;2023-05-07T00:27:55;5.20;;;3.63;;
2001;SDS011;1003;48.002;7.788;2023-05-07T00:30:22;3.90;;;3.50;;
2001;SDS011;1003;48.002;7.788;2023-05-07T00:32:49;4.40;;;3.70;;
2001;SDS011;1003;48.002;7.788;2023-05-07T00:35:16;6.17;;;4.40;;
2001;SDS011;1003;48.002;7.788;2023-05-07T00:37:45;5.30;;;3.93;;
2001;SDS011;1003;48.002;7.788;2023-05-07T00:40:13;6.20;;;4.23;;
2001;SDS011;1003;48.002;7.788;2023-05-07T00:42:40;6.27;;;4.00;;
2001;SDS011;1003;48.002;7.788;2023-05-07T00:45:11;7.67;;;4.40;;
2001;SDS011;1003;48.002;7.788;2023-05-07T00:47:39;5.23;;;4.17;;
2001;SDS011;1003;48.002;7.788;2023-05-07T00:50:07;6.03;;;4.40;;
2001;SDS011;1003;48.002;7.788;2023-05-07T00:52:37;5.03;;;4.10;;
2001;SDS011;1003;48.002;7.788;2023-05-07T00:55:08;5.87;;;3.80;;
2001;SDS011;1003;48.002;7.788;2023-05-07T00:57:36;5.77;;;3.50;;
2001;SDS011;1003;48.002;7.788;2023-05-07T01:00:06;5.00;;;3.30;;
2001;SDS011;1003;48.002;7.788;2023-05-07T01:02:35;5.83;;;3.40;;
2001;SDS011;1003;48.002;7.788;2023-05-07T01:05:02;3.20;;;2.83;;
2001;SDS011;1003;48.002;7.788;2023-05-07T01:07:34;4.13;;;3.00;;
2001;SDS011;1003;48.002;7.788;2023-05-07T01:10:04;5.97;;;3.17;;
2001;SDS011;1003;48.002;7.788;2023-05-07T01:12:37;3.27;;;3.00;;
2001;SDS011;1003;48.002;7.788;2023-05-07T01:15:07;4.73;;;3.07;;
2001;SDS011;1003;48.002;7.788;2023-05-07T01:17:36;6.37;;;3.20;;
2001;SDS011;1003;48.002;7.788;2023-05-07T01:20:06;3.97;;;3.10;;
2001;SDS011;1003;48.002;7.788;2023-05-07T01:22:38;3.83;;;3.00;;
2001;SDS011;1003;48.002;7.788;2023-05-07T01:25:06;5.00;;;2.97;;
2001;SDS011;1003;48.002;7.788;2023-05-07T01:27:34;3.57;;;2.87;;
2001;SDS011;1003;48.002;7.788;2023-05-07T01:30:02;3.80;;;3.00;;
2001;SDS011;1003;48.002;7.788;2023-05-07T01:32:31;3.60;;;2.90;;
2001;SDS011;1003;48.002;7.788;2023-05-07T01:35:05;4.23;;;3.10;;
2001;SDS011;1003;48.002;7.788;2023-05-07T01:37:35;3.57;;;3.23;;
2001;SDS011;1003;48.002;7.788;2023-05-07T01:40:05;3.60;;;2.87;;
2001;SDS011;1003;48.002;7.788;2023-05-07T01:42:34;3.23;;;2.93;;
2001;SDS011;1003;48.002;7.788;2023-05-07T01:45:02;2.90;;;2.70;;
2001;SDS011;1003;48.002;7.788;2023-05-07T01:47:30;5.80;;;3.63;;
2001;SDS011;1003;48.002;7.788;2023-05-07T01:49:58;3.50;;;2.97;;
2001;SDS011;1003;48.002;7.788;2023-05-07T01:52:27;5.27;;;3.27;;
2001;SDS011;1003;48.002;7.788;2023-05-07T01:54:56;6.30;;;3.40;;
2001;SDS011;1003;48.002;7.788;2023-05-07T01:57:23;3.40;;;3.07;;
2001;SDS011;1003;48.002;7.788;2023-05-07T01:59:50;4.67;;;3.37;;
2001;SDS011;1003;48.002;7.788;2023-05-07T02:02:17;3.83;;;2.93;;
2001;SDS011;1003;48.002;7.788;2023-05-07T02:04:44;3.53;;;3.00;;
2001;SDS011;1003;48.002;7.788;2023-05-07T02:07:11;5.73;;;3.47;;
2001;SDS011;1003;48.002;7.788;2023-05-07T02:09:38;3.73;;;3.23;;
2001;SDS011;1003;48.002;7.788;2023-05-07T02:12:06;3.53;;;2.97;;
2001;SDS011;1003;48.002;7.788;2023-05-07T02:14:33;3.33;;;2.90;;
2001;SDS011;1003;48.002;7.788;2023-05-07T02:17:00;3.83;;;3.43;;
2001;SDS011;1003;48.002;7.788;2023-05-07T02:19:27;5.07;;;3.40;;
2001;SDS011;1003;48.002;7.788;2023-05-07T02:21:54;3.77;;;3.37;;
2001;SDS011;1003;48.002;7.788;2023-05-07T02:24:21;5.43;;;3.20;;
2001;SDS011;1003;48.002;7.788;2023-05-07T02:26:49;4.10;;;3.30;;
2001;SDS011;1003;48.002;7.788;2023-05-07T02:29:17;5.53;;;3.53;;
2001;SDS011;1003;48.002;7.788;2023-05-07T02:31:44;4.50;;;3.30;;
2001;SDS011;1003;48.002;7.788;2023-05-07T02:34:12;4.13;;;3.40;;
2001;SDS011;1003;48.002;7.788;2023-05-07T02:36:39;3.87;;;3.30;;
2001;SDS011;1003;48.002;7.788;2023-05-07T02:39:06;4.20;;;3.63;;
2001;SDS011;1003;48.002;7.788;2023-05-07T02:41:36;3.87;;;3.20;;
2001;SDS011;1003;48.002;7.788;2023-05-07T02:44:03;4.03;;;3.40;;
2001;SDS011;1003;48.002;7.788;2023-05-07T02:46:32;4.93;;;3.30;;
2001;SDS011;1003;48.002;7.788;2023-05-07T02:49:01;7.40;;;3.53;;
2001;SDS011;1003;48.002;7.788;2023-05-07T02:51:29;4.50;;;3.60;;
2001;SDS011;1003;48.002;7.788;2023-05-07T02:53:57;4.17;;;3.40;;
2001;SDS011;1003;48.002;7.788;2023-05-07T02:56:25;5.33;;;3.83;;
2001;SDS011;1003;48.002;7.788;2023-05-07T02:58:55;4.33;;;3.33;;
2001;SDS011;1003;48.002;7.788;2023-05-07T03:01:22;4.20;;;3.53;;
2001;SDS011;1003;48.002;7.788;2023-05-07T03:03:50;4.90;;;3.37;;
2001;SDS011;1003;48.002;7.788;2023-05-07T03:06:17;6.47;;;3.80;;
2001;SDS011;1003;48.002;7.788;2023-05-07T03:08:44;4.83;;;3.90;;
2001;SDS011;1003;48.002;7.788;2023-05-07T03:11:11;4.43;;;3.70;;
2001;SDS011;1003;48.002;7.788;2023-05-07T03:13:38;3.97;;;3.33;;
2001;SDS011;1003;48.002;7.788;2023-05-07T03:16:05;6.03;;;4.00;;
2001;SDS011;1003;48.002;7.788;2023-05-07T03:18:33;3.60;;;3.30;;
2001;SDS011;1003;48.002;7.788;2023-05-07T03:21:02;4.23;;;3.60;;
2001;SDS011;1003;48.002;7.788;2023-05-07T03:23:29;7.37;;;3.83;;
2001;SDS011;1003;48.002;7.788;2023-05-07T03:25:56;4.17;;;3.47;;
2001;SDS011;1003;48.002;7.788;2023-05-07T03:28:23;4.53;;;3.43;;
2001;SDS011;1003;48.002;7.788;2023-05-07T03:30:50;3.70;;;3.40;;
2001;SDS011;1003;48.002;7.788;2023-05-07T03:33:17;4.47;;;3.70;;
2001;SDS011;1003;48.002;7.788;2023-05-07T03:35:44;3.50;;;3.20;;
2001;SDS011;1003;48.002;7.788;2023-05-07T03:38:12;3.43;;;2.70;;
2001;SDS011;1003;48.002;7.788;2023-05-07T03:40:39;6.37;;;3.40;;
2001;SDS011;1003;48.002;7.788;2023-05-07T03:43:06;3.80;;;3.20;;
2001;SDS011;1003;48.002;7.788;2023-05-07T03:45:34;4.17;;;3.30;;
2001;SDS011;1003;48.002;7.788;2023-05-07T03:48:02;3.40;;;2.97;;
2001;SDS011;1003;48.002;7.788;2023-05-07T03:50:30;3.93;;;3.37;;
2001;SDS011;1003;48.002;7.788;2023-05-07T03:52:57;4.50;;;3.33;;
2001;SDS011;1003;48.002;7.788;2023-05-07T03:55:25;4.63;;;3.50;;
2001;SDS011;1003;48.002;7.788;2023-05-07T03:57:52;6.30;;;3.43;;
2001;SDS011;1003;48.002;7.788;2023-05-07T04:00:19;3.33;;;3.00;;
2001;SDS011;1003;48.002;7.788;2023-05-07T04:02:47;4.00;;;3.47;;
2001;SDS011;1003;48.002;7.788;2023-05-07T04:05:14;4.40;;;3.13;;
2001;SDS011;1003;48.002;7.788;2023-05-07T04:07:41;3.70;;;3.30;;
2001;SDS011;1003;48.002;7.788;2023-05-07T04:10:09;5.80;;;3.47;;
2001;SDS011;1003;48.002;7.788;2023-05-07T04:12:40;4.17;;;3.20;;
2001;SDS011;1003;48.002;7.788;2023-05-07T04:15:07;3.97;;;3.20;;
2001;SDS011;1003;48.002;7.788;2023-05-07T04:17:35;5.07;;;3.77;;
2001;SDS011;1003;48.002;7.788;2023-05-07T04:20:02;4.10;;;3.70;;
2001;SDS011;1003;48.002;7.788;2023-05-07T04:22:32;4.30;;;3.37;;
2001;SDS011;1003;48.002;7.788;2023-05-07T04:24:59;5.43;;;3.80;;
2001;SDS011;1003;48.002;7.788;2023-05-07T04:27:27;6.40;;;3.80;;
2001;SDS011;1003;48.002;7.788;2023-05-07T04:29:56;4.67;;;3.87;;
2001;SDS011;1003;48.002;7.788;2023-05-07T04:32:23;4.33;;;3.30;;
2001;SDS011;1003;48.002;7.788;2023-05-07T04:34:50;3.80;;;3.33;;
2001;SDS011;1003;48.002;7.788;2023-05-07T04:37:18;3.50;;;2.90;;
2001;SDS011;1003;48.002;7.788;2023-05-07T04:39:45;3.47;;;3.07;;
2001;SDS011;1003;48.002;7.788;2023-05-07T04:42:14;3.40;;;3.07;;
2001;SDS011;1003;48.002;7.788;2023-05-07T04:44:41;4.37;;;3.17;;
2001;SDS011;1003;48.002;7.788;2023-05-07T04:47:09;3.30;;;3.00;;
2001;SDS011;1003;48.002;7.788;2023-05-07T04:49:36;3.57;;;2.87;;
2001;SDS011;1003;48.002;7.788;2023-05-07T04:52:04;3.07;;;2.60;;
2001;SDS011;1003;48.002;7.788;2023-05-07T04:54:31;5.20;;;2.97;;
2001;SDS011;1003;48.002;7.788;2023-05-07T04:56:58;3.10;;;2.80;;
2001;SDS011;1003;48.002;7.788;2023-05-07T04:59:25;4.00;;;3.03;;
2001;SDS011;1003;48.002;7.788;2023-05-07T05:01:52;2.93;;;2.70;;
2001;SDS011;1003;48.002;7.788;2023-05-07T05:04:21;3.07;;;2.77;;
2001;SDS011;1003;48.002;7.788;2023-05-07T05:06:48;2.60;;;2.40;;
2001;SDS011;1003;48.002;7.788;2023-05-07T05:09:15;3.13;;;2.80;;
2001;SDS011;1003;48.002;7.788;2023-05-07T05:11:42;4.20;;;3.00;;
2001;SDS011;1003;48.002;7.788;2023-05-07T05:14:10;4.23;;;2.80;;
2001;SDS011;1003;48.002;7.788;2023-05-07T05:16:37;4.77;;;3.00;;
2001;SDS011;1003;48.002;7.788;2023-05-07T05:19:04;3.23;;;2.53;;
2001;SDS011;1003;48.002;7.788;2023-05-07T05:21:32;4.40;;;2.80;;
2001;SDS011;1003;48.002;7.788;2023-05-07T05:23:59;3.93;;;3.27;;
2001;SDS011;1003;48.002;7.788;2023-05-07T05:26:26;4.77;;;3.00;;
2001;SDS011;1003;48.002;7.788;2023-05-07T05:28:53;3.57;;;3.03;;
2001;SDS011;1003;48.002;7.788;2023-05-07T05:31:20;3.70;;;2.90;;
2001;SDS011;1003;48.002;7.788;2023-05-07T05:33:47;3.27;;;2.70;;
2001;SDS011;1003;48.002;7.788;2023-05-07T05:36:14;2.60;;;2.40;;
2001;SDS011;1003;48.002;7.788;2023-05-07T05:38:43;3.20;;;2.60;;
2001;SDS011;1003;48.002;7.788;2023-05-07T05:41:10;4.47;;;2.70;;
2001;SDS011;1003;48.002;7.788;2023-05-07T05:43:37;2.70;;;2.50;;
2001;SDS011;1003;48.002;7.788;2023-05-07T05:46:04;2.60;;;2.40;;
2001;SDS011;1003;48.002;7.788;2023-05-07T05:48:33;4.27;;;2.90;;
2001;SDS011;1003;48.002;7.788;2023-05-07T05:51:00;4.03;;;2.90;;
2001;SDS011;1003;48.002;7.788;2023-05-07T05:53:27;3.70;;;3.20;;
2001;SDS011;1003;48.002;7.788;2023-05-07T05:55:55;4.90;;;3.10;;
2001;SDS011;1003;48.002;7.788;2023-05-07T05:58:23;5.40;;;2.80;;
2001;SDS011;1003;48.002;7.788;2023-05-07T06:00:50;4.43;;;2.90;;
2001;SDS011;1003;48.002;7.788;2023-05-07T06:03:18;3.03;;;2.73;;
2001;SDS011;1003;48.002;7.788;2023-05-07T06:05:45;4.10;;;3.70;;
2001;SDS011;1003;48.002;7.788;2023-05-07T06:08:12;4.63;;;3.50;;
2001;SDS011;1003;48.002;7.788;2023-05-07T06:10:40;4.83;;;3.50;;
2001;SDS011;1003;48.002;7.788;2023-05-07T06:13:09;4.40;;;3.10;;
2001;SDS011;1003;48.002;7.788;2023-05-07T06:15:36;3.70;;;2.90;;
2001;SDS011;1003;48.002;7.788;2023-05-07T06:18:03;3.20;;;2.90;;
2001;SDS011;1003;48.002;7.788;2023-05-07T06:20:31;3.67;;;2.83;;
2001;SDS011;1003;48.002;7.788;2023-05-07T06:22:58;3.50;;;2.73;;
2001;SDS011;1003;48.002;7.788;2023-05-07T06:25:25;3.73;;;3.30;;
2001;SDS011;1003;48.002;7.788;2023-05-07T06:27:52;4.07;;;3.00;;
2001;SDS011;1003;48.002;7.788;2023-05-07T06:30:20;3.00;;;2.70;;
2001;SDS011;1003;48.002;7.788;2023-05-07T06:32:48;5.80;;;3.10;;
2001;SDS011;1003;48.002;7.788;2023-05-07T06:35:15;3.23;;;2.87;;
2001;SDS011;1003;48.002;7.788;2023-05-07T06:37:42;4.67;;;3.50;;
2001;SDS011;1003;48.002;7.788;2023-05-07T06:40:09;4.70;;;3.23;;
2001;SDS011;1003;48.002;7.788;2023-05-07T06:42:37;5.63;;;3.70;;
2001;SDS011;1003;48.002;7.788;2023-05-07T06:45:04;5.07;;;3.73;;
2001;SDS011;1003;48.002;7.788;2023-05-07T06:47:34;5.23;;;4.37;;
2001;SDS011;1003;48.002;7.788;2023-05-07T06:50:01;5.37;;;4.40;;
2001;SDS011;1003;48.002;7.788;2023-05-07T06:52:29;5.83;;;5.07;;
2001;SDS011;1003;48.002;7.788;2023-05-07T06:54:56;4.80;;;4.27;;
2001;SDS011;1003;48.002;7.788;2023-05-07T06:57:23;6.37;;;4.90;;
2001;SDS011;1003;48.002;7.788;2023-05-07T06:59:50;7.30;;;5.20;;
2001;SDS011;1003;48.002;7.788;2023-05-07T07:02:17;4.77;;;4.20;;
2001;SDS011;1003;48.002;7.788;2023-05-07T07:04:46;5.70;;;4.97;;
2001;SDS011;1003;48.002;7.788;2023-05-07T07:07:13;6.13;;;4.10;;
2001;SDS011;1003;48.002;7.788;2023-05-07T07:09:40;5.83;;;4.03;;
2001;SDS011;1003;48.002;7.788;2023-05-07T07:12:07;5.00;;;4.00;;
2001;SDS011;1003;48.002;7.788;2023-05-07T07:14:34;4.87;;;4.37;;
2001;SDS011;1003;48.002;7.788;2023-05-07T07:17:01;5.37;;;4.17;;
2001;SDS011;1003;48.002;7.788;2023-05-07T07:19:30;5.37;;;4.00;;
2001;SDS011;1003;48.002;7.788;2023-05-07T07:21:58;4.47;;;4.00;;
2001;SDS011;1003;48.002;7.788;2023-05-07T07:24:25;4.57;;;3.50;;
2001;SDS011;1003;48.002;7.788;2023-05-07T07:26:52;3.60;;;3.30;;
2001;SDS011;1003;48.002;7.788;2023-05-07T07:29:20;5.10;;;4.03;;
2001;SDS011;1003;48.002;7.788;2023-05-07T07:31:47;5.43;;;3.77;;
2001;SDS011;1003;48.002;7.788;2023-05-07T07:34:15;4.43;;;3.17;;
2001;SDS011;1003;48.002;7.788;2023-05-07T07:36:42;3.40;;;3.10;;
2001;SDS011;1003;48.002;7.788;2023-05-07T07:39:10;4.23;;;3.30;;
2001;SDS011;1003;48.002;7.788;2023-05-07T07:41:37;3.60;;;3.07;;
2001;SDS011;1003;48.002;7.788;2023-05-07T07:44:04;3.40;;;3.10;;
2001;SDS011;1003;48.002;7.788;2023-05-07T07:46:32;4.73;;;3.30;;
2001;SDS011;1003;48.002;7.788;2023-05-07T07:48:59;4.17;;;3.23;;
2001;SDS011;1003;48.002;7.788;2023-05-07T07:51:26;3.73;;;3.30;;
2001;SDS011;1003;48.002;7.788;2023-05-07T07:53:53;4.30;;;3.40;;
2001;SDS011;1003;48.002;7.788;2023-05-07T07:56:24;4.73;;;3.40;;
2001;SDS011;1003;48.002;7.788;2023-05-07T07:58:51;3.67;;;3.00;;
2001;SDS011;1003;48.002;7.788;2023-05-07T08:01:18;3.47;;;3.17;;
2001;SDS011;1003;48.002;7.788;2023-05-07T08:03:45;4.33;;;3.33;;
2001;SDS011;1003;48.002;7.788;2023-05-07T08:06:12;4.43;;;3.07;;
2001;SDS011;1003;48.002;7.788;2023-05-07T08:08:39;3.60;;;3.30;;
2001;SDS011;1003;48.002;7.788;2023-05-07T08:11:06;3.20;;;2.90;;
2001;SDS011;1003;48.002;7.788;2023-05-07T08:13:35;4.77;;;3.63;;
2001;SDS011;1003;48.002;7.788;2023-05-07T08:16:04;4.13;;;3.23;;
2001;SDS011;1003;48.002;7.788;2023-05-07T08:18:31;4.30;;;3.23;;
2001;SDS011;1003;48.002;7.788;2023-05-07T08:20:58;4.47;;;3.20;;
2001;SDS011;1003;48.002;7.788;2023-05-07T08:23:25;4.77;;;3.10;;
2001;SDS011;1003;48.002;7.788;2023-05-07T08:25:52;4.17;;;3.43;;
2001;SDS011;1003;48.002;7.788;2023-05-07T08:28:20;6.77;;;3.50;;
2001;SDS011;1003;48.002;7.788;2023-05-07T08:30:48;3.23;;;2.93;;
2001;SDS011;1003;48.002;7.788;2023-05-07T08:33:15;3.77;;;2.90;;
2001;SDS011;1003;48.002;7.788;2023-05-07T08:35:42;3.23;;;2.83;;
2001;SDS011;1003;48.002;7.788;2023-05-07T08:38:09;3.87;;;3.47;;
2001;SDS011;1003;48.002;7.788;2023-05-07T08:40:37;3.90;;;3.50;;
2001;SDS011;1003;48.002;7.788;2023-05-07T08:43:06;4.37;;;3.30;;
2001;SDS011;1003;48.002;7.788;2023-05-07T08:45:34;3.60;;;2.97;;
2001;SDS011;1003;48.002;7.788;2023-05-07T08:48:02;3.83;;;2.90;;
2001;SDS011;1003;48.002;7.788;2023-05-07T08:50:35;3.87;;;3.23;;
2001;SDS011;1003;48.002;7.788;2023-05-07T08:53:04;6.00;;;4.03;;
2001;SDS011;1003;48.002;7.788;2023-05-07T08:55:31;3.70;;;3.13;;
2001;SDS011;1003;48.002;7.788;2023-05-07T08:57:58;4.17;;;3.70;;
2001;SDS011;1003;48.002;7.788;2023-05-07T09:00:26;6.10;;;4.13;;
2001;SDS011;1003;48.002;7.788;2023-05-07T09:02:53;4.97;;;3.60;;
2001;SDS011;1003;48.002;7.788;2023-05-07T09:05:21;4.20;;;3.80;;
2001;SDS011;1003;48.002;7.788;2023-05-07T09:07:48;4.47;;;3.77;;
2001;SDS011;1003;48.002;7.788;2023-05-07T09:10:16;4.20;;;3.77;;
2001;SDS011;1003;48.002;7.788;2023-05-07T09:12:43;4.97;;;3.80;;
2001;SDS011;1003;48.002;7.788;2023-05-07T09:15:13;4.93;;;3.70;;
2001;SDS011;1003;48.002;7.788;2023-05-07T09:17:40;3.37;;;3.00;;
2001;SDS011;1003;48.002;7.788;2023-05-07T09:20:07;3.00;;;2.70;;
2001;SDS011;1003;48.002;7.788;2023-05-07T09:22:37;2.47;;;2.30;;
2001;SDS011;1003;48.002;7.788;2023-05-07T09:25:05;3.37;;;2.70;;
2001;SDS011;1003;48.002;7.788;2023-05-07T09:27:34;2.97;;;2.63;;
2001;SDS011;1003;48.002;7.788;2023-05-07T09:30:03;4.73;;;3.60;;
2001;SDS011;1003;48.002;7.788;2023-05-07T09:32:34;5.30;;;3.10;;
2001;SDS011;1003;48.002;7.788;2023-05-07T09:35:03;3.80;;;2.93;;
2001;SDS011;1003;48.002;7.788;2023-05-07T09:37:31;3.77;;;2.83;;
2001;SDS011;1003;48.002;7.788;2023-05-07T09:39:59;3.53;;;3.03;;
2001;SDS011;1003;48.002;7.788;2023-05-07T09:42:28;3.07;;;2.73;;
2001;SDS011;1003;48.002;7.788;2023-05-07T09:44:55;3.77;;;2.83;;
2001;SDS011;1003;48.002;7.788;2023-05-07T09:47:23;5.57;;;3.30;;
2001;SDS011;1003;48.002;7.788;2023-05-07T09:49:52;3.43;;;2.90;;
2001;SDS011;1003;48.002;7.788;2023-05-07T09:52:23;3.97;;;3.07;;
2001;SDS011;1003;48.002;7.788;2023-05-07T09:54:59;3.40;;;3.10;;
2001;SDS011;1003;48.002;7.788;2023-05-07T09:57:28;3.47;;;3.10;;
2001;SDS011;1003;48.002;7.788;2023-05-07T09:59:56;6.80;;;3.43;;
2001;SDS011;1003;48.002;7.788;2023-05-07T10:02:27;5.03;;;2.87;;
2001;SDS011;1003;48.002;7.788;2023-05-07T10:04:57;3.67;;;2.60;;
2001;SDS011;1003;48.002;7.788;2023-05-07T10:07:26;3.10;;;2.80;;
2001;SDS011;1003;48.002;7.788;2023-05-07T10:09:55;3.43;;;2.50;;
2001;SDS011;1003;48.002;7.788;2023-05-07T10:12:24;3.80;;;2.50;;
2001;SDS011;1003;48.002;7.788;2023-05-07T10:14:52;2.87;;;2.30;;
2001;SDS011;1003;48.002;7.788;2023-05-07T10:17:21;2.63;;;2.43;;
2001;SDS011;1003;48.002;7.788;2023-05-07T10:19:50;2.50;;;2.30;;
2001;SDS011;1003;48.002;7.788;2023-05-07T10:22:20;2.90;;;2.40;;
2001;SDS011;1003;48.002;7.788;2023-05-07T10:24:50;2.87;;;2.63;;
2001;SDS011;1003;48.002;7.788;2023-05-07T10:27:22;4.27;;;2.80;;
2001;SDS011;1003;48.002;7.788;2023-05-07T10:29:53;5.17;;;3.10;;
2001;SDS011;1003;48.002;7.788;2023-05-07T10:32:35;6.28;;;3.85;;
2001;SDS011;1003;48.002;7.788;2023-05-07T10:35:16;5.27;;;3.50;;
2001;SDS011;1003;48.002;7.788;2023-05-07T10:37:48;4.07;;;3.23;;
2001;SDS011;1003;48.002;7.788;2023-05-07T10:40:16;4.60;;;3.70;;
2001;SDS011;1003;48.002;7.788;2023-05-07T10:42:55;4.93;;;3.70;;
2001;SDS011;1003;48.002;7.788;2023-05-07T10:45:24;4.77;;;3.90;;
2001;SDS011;1003;48.002;7.788;2023-05-07T10:48:05;4.13;;;3.50;;
2001;SDS011;1003;48.002;7.788;2023-05-07T10:50:35;5.43;;;3.70;;
2001;SDS011;1003;48.002;7.788;2023-05-07T10:53:21;4.63;;;3.33;;
2001;SDS011;1003;48.002;7.788;2023-05-07T10:55:51;6.60;;;4.03;;
2001;SDS011;1003;48.002;7.788;2023-05-07T10:58:52;7.07;;;4.33;;
2001;SDS011;1003;48.002;7.788;2023-05-07T11:04:19;5.67;;;4.20;;
2001;SDS011;1003;48.002;7.788;2023-05-07T11:09:57;5.07;;;3.80;;
2001;SDS011;1003;48.002;7.788;2023-05-07T11:12:51;4.73;;;4.17;;
2001;SDS011;1003;48.002;7.788;2023-05-07T11:15:44;4.77;;;4.27;;
2001;SDS011;1003;48.002;7.788;2023-05-07T11:18:13;4.30;;;3.90;;
2001;SDS011;1003;48.002;7.788;2023-05-07T11:26:25;4.90;;;3.20;;
2001;SDS011;1003;48.002;7.788;2023-05-07T11:28:54;3.80;;;3.50;;
2001;SDS011;1003;48.002;7.788;2023-05-07T11:31:24;4.87;;;3.10;;
2001;SDS011;1003;48.002;7.788;2023-05-07T11:33:54;4.33;;;3.20;;
2001;SDS011;1003;48.002;7.788;2023-05-07T11:36:22;4.27;;;3.53;;
2001;SDS011;1003;48.002;7.788;2023-05-07T11:38:51;4.60;;;3.50;;
2001;SDS011;1003;48.002;7.788;2023-05-07T11:41:18;4.53;;;2.60;;
2001;SDS011;1003;48.002;7.788;2023-05-07T11:43:55;3.10;;;2.83;;
2001;SDS011;1003;48.002;7.788;2023-05-07T11:46:26;3.70;;;3.40;;
2001;SDS011;1003;48.002;7.788;2023-05-07T11:48:54;3.70;;;3.00;;
2001;SDS011;1003;48.002;7.788;2023-05-07T11:51:23;4.10;;;3.53;;
2001;SDS011;1003;48.002;7.788;2023-05-07T11:53:52;2.90;;;2.70;;
2001;SDS011;1003;48.002;7.788;2023-05-07T11:56:19;5.30;;;3.40;;
2001;SDS011;1003;48.002;7.788;2023-05-07T11:58:47;3.03;;;2.53;;
2001;SDS011;1003;48.002;7.788;2023-05-07T12:01:16;3.47;;;2.80;;
2001;SDS011;1003;48.002;7.788;2023-05-07T12:03:45;3.00;;;2.70;;
2001;SDS011;1003;48.002;7.788;2023-05-07T12:06:13;3.23;;;2.73;;
2001;SDS011;1003;48.002;7.788;2023-05-07T12:08:43;3.50;;;2.87;;
2001;SDS011;1003;48.002;7.788;2023-05-07T12:11:13;4.20;;;2.77;;
2001;SDS011;1003;48.002;7.788;2023-05-07T12:13:48;3.00;;;2.80;;
2001;SDS011;1003;48.002;7.788;2023-05-07T12:16:15;4.83;;;3.20;;
2001;SDS011;1003;48.002;7.788;2023-05-07T12:18:45;4.07;;;3.20;;
2001;SDS011;1003;48.002;7.788;2023-05-07T12:21:13;3.93;;;3.00;;
2001;SDS011;1003;48.002;7.788;2023-05-07T12:23:42;5.43;;;3.53;;
2001;SDS011;1003;48.002;7.788;2023-05-07T12:26:09;4.63;;;3.40;;
2001;SDS011;1003;48.002;7.788;2023-05-07T12:28:37;4.60;;;3.23;;
2001;SDS011;1003;48.002;7.788;2023-05-07T12:31:05;3.50;;;3.20;;
2001;SDS011;1003;48.002;7.788;2023-05-07T12:33:33;3.63;;;2.73;;
2001;SDS011;1003;48.002;7.788;2023-05-07T12:36:07;4.97;;;3.20;;
2001;SDS011;1003;48.002;7.788;2023-05-07T12:38:35;4.77;;;3.37;;
2001;SDS011;1003;48.002;7.788;2023-05-07T12:41:04;4.00;;;2.70;;
2001;SDS011;1003;48.002;7.788;2023-05-07T12:43:32;3.60;;;2.60;;
2001;SDS011;1003;48.002;7.788;2023-05-07T12:46:00;3.23;;;2.93;;
2001;SDS011;1003;48.002;7.788;2023-05-07T12:48:30;3.27;;;2.90;;
2001;SDS011;1003;48.002;7.788;2023-05-07T12:50:59;3.10;;;2.80;;
2001;SDS011;1003;48.002;7.788;2023-05-07T12:53:29;3.60;;;3.20;;
2001;SDS011;1003;48.002;7.788;2023-05-07T12:55:58;3.87;;;3.53;;
2001;SDS011;1003;48.002;7.788;2023-05-07T12:58:33;3.27;;;2.97;;
2001;SDS011;1003;48.002;7.788;2023-05-07T13:01:04;2.70;;;2.50;;
2001;SDS011;1003;48.002;7.788;2023-05-07T13:03:34;4.57;;;3.47;;
2001;SDS011;1003;48.002;7.788;2023-05-07T13:06:04;4.43;;;3.20;;
2001;SDS011;1003;48.002;7.788;2023-05-07T13:08:37;3.73;;;3.33;;
2001;SDS011;1003;48.002;7.788;2023-05-07T13:11:08;5.23;;;3.80;;
2001;SDS011;1003;48.002;7.788;2023-05-07T13:13:37;5.13;;;3.57;;
2001;SDS011;1003;48.002;7.788;2023-05-07T13:16:06;3.70;;;3.30;;
2001;SDS011;1003;48.002;7.788;2023-05-07T13:18:36;4.00;;;3.50;;
2001;SDS011;1003;48.002;7.788;2023-05-07T13:21:05;3.57;;;3.10;;
2001;SDS011;1003;48.002;7.788;2023-05-07T13:23:32;4.87;;;3.03;;
2001;SDS011;1003;48.002;7.788;2023-05-07T13:26:01;3.23;;;3.00;;
2001;SDS011;1003;48.002;7.788;2023-05-07T13:28:28;5.80;;;3.43;;
2001;SDS011;1003;48.002;7.788;2023-05-07T13:30:55;3.17;;;2.90;;
2001;SDS011;1003;48.002;7.788;2023-05-07T13:33:22;3.13;;;2.83;;
2001;SDS011;1003;48.002;7.788;2023-05-07T13:35:49;4.27;;;3.40;;
2001;SDS011;1003;48.002;7.788;2023-05-07T13:38:16;3.77;;;3.10;;
2001;SDS011;1003;48.002;7.788;2023-05-07T13:40:45;4.40;;;3.17;;
2001;SDS011;1003;48.002;7.788;2023-05-07T13:43:14;2.90;;;2.70;;
2001;SDS011;1003;48.002;7.788;2023-05-07T13:45:42;3.53;;;3.23;;
2001;SDS011;1003;48.002;7.788;2023-05-07T13:48:09;4.47;;;3.53;;
2001;SDS011;1003;48.002;7.788;2023-05-07T13:50:36;3.00;;;2.80;;
2001;SDS011;1003;48.002;7.788;2023-05-07T13:53:03;2.57;;;2.37;;
2001;SDS011;1003;48.002;7.788;2023-05-07T13:55:30;4.43;;;3.03;;
2001;SDS011;1003;48.002;7.788;2023-05-07T13:58:01;5.23;;;3.60;;
2001;SDS011;1003;48.002;7.788;2023-05-07T14:00:30;4.03;;;3.20;;
2001;SDS011;1003;48.002;7.788;2023-05-07T14:02:57;3.60;;;3.20;;
2001;SDS011;1003;48.002;7.788;2023-05-07T14:05:24;3.30;;;3.00;;
2001;SDS011;1003;48.002;7.788;2023-05-07T14:07:53;4.23;;;3.40;;
2001;SDS011;1003;48.002;7.788;2023-05-07T14:10:21;3.97;;;3.10;;
2001;SDS011;1003;48.002;7.788;2023-05-07T14:12:48;4.17;;;2.90;;
2001;SDS011;1003;48.002;7.788;2023-05-07T14:15:15;2.93;;;2.33;;
2001;SDS011;1003;48.002;7.788;2023-05-07T14:17:44;2.00;;;1.80;;
2001;SDS011;1003;48.002;7.788;2023-05-07T14:20:12;1.77;;;1.67;;
2001;SDS011;1003;48.002;7.788;2023-05-07T14:22:39;2.07;;;1.67;;
2001;SDS011;1003;48.002;7.788;2023-05-07T14:25:06;1.80;;;1.70;;
2001;SDS011;1003;48.002;7.788;2023-05-07T14:27:35;1.70;;;1.60;;
2001;SDS011;1003;48.002;7.788;2023-05-07T14:30:02;2.27;;;2.00;;
2001;SDS011;1003;48.002;7.788;2023-05-07T14:32:30;1.73;;;1.60;;
2001;SDS011;1003;48.002;7.788;2023-05-07T14:35:00;1.50;;;1.30;;
2001;SDS011;1003;48.002;7.788;2023-05-07T14:37:27;1.53;;;1.43;;
2001;SDS011;1003;48.002;7.788;2023-05-07T14:39:54;1.60;;;1.30;;
2001;SDS011;1003;48.002;7.788;2023-05-07T14:42:21;1.67;;;1.33;;
2001;SDS011;1003;48.002;7.788;2023-05-07T14:44:48;1.70;;;1.60;;
2001;SDS011;1003;48.002;7.788;2023-05-07T14:47:15;2.27;;;1.60;;
2001;SDS011;1003;48.002;7.788;2023-05-07T14:49:45;1.60;;;1.50;;
2001;SDS011;1003;48.002;7.788;2023-05-07T14:52:14;1.43;;;1.33;;
2001;SDS011;1003;48.002;7.788;2023-05-07T14:54:41;1.50;;;1.40;;
2001;SDS011;1003;48.002;7.788;2023-05-07T14:57:09;3.23;;;1.50;;
2001;SDS011;1003;48.002;7.788;2023-05-07T14:59:38;1.40;;;1.30;;
2001;SDS011;1003;48.002;7.788;2023-05-07T15:02:06;1.60;;;1.50;;
2001;SDS011;1003;48.002;7.788;2023-05-07T15:04:34;1.83;;;1.47;;
2001;SDS011;1003;48.002;7.788;2023-05-07T15:07:03;1.60;;;1.50;;
2001;SDS011;1003;48.002;7.788;2023-05-07T15:09:31;1.57;;;1.40;;
2001;SDS011;1003;48.002;7.788;2023-05-07T15:11:58;1.60;;;1.40;;
2001;SDS011;1003;48.002;7.788;2023-05-07T15:14:27;1.60;;;1.50;;
2001;SDS011;1003;48.002;7.788;2023-05-07T15:16:54;1.30;;;1.30;;
2001;SDS011;1003;48.002;7.788;2023-05-07T15:19:21;1.83;;;1.73;;
2001;SDS011;1003;48.002;7.788;2023-05-07T15:21:53;1.60;;;1.50;;
2001;SDS011;1003;48.002;7.788;2023-05-07T15:24:21;1.70;;;1.60;;
2001;SDS011;1003;48.002;7.788;2023-05-07T15:26:51;1.70;;;1.60;;
2001;SDS011;1003;48.002;7.788;2023-05-07T15:29:18;1.53;;;1.47;;
2001;SDS011;1003;48.002;7.788;2023-05-07T15:31:45;1.60;;;1.50;;
2001;SDS011;1003;48.002;7.788;2023-05-07T15:34:12;1.50;;;1.40;;